Latest Weather Observations for Bridgetown

IDW60801

Issued at 11:05 am WST Saturday 1 November 2014 (issued every 30 minutes, with the page automatically refreshed every 10 minutes)

About weather observations | Map of weather stations | Latest weather observations for WA | Other Formats
Station Details ID: 009617 Name: BRIDGETOWN Lat: -33.95 Lon: 116.13 Height: 178.66 m
Data from the previous 72 hours. | See also: Recent months at Bridgetown
Date/Time
WST
Temp
°C
App
Temp
°C
Dew
Point
Rel
Hum
%
Delta-T
°C
Wind Press
QNH
hPa
Press
MSL
hPa
Rain
since 9 am
mm
Dir
 
Spd
km/h
Gust
km/h
Spd
kts
Gust
kts
01/11:00am 21.6 19.4 9.5 46 6.5 NE 11 28 6 15 1018.2 1017.9 0.0
01/10:30am 20.5 18.1 8.8 47 6.2 NE 11 17 6 9 1018.9 1018.6 0.0
01/10:00am 19.5 17.4 9.7 53 5.2 ENE 11 19 6 10 1019.5 1019.2 0.0
01/09:30am 18.1 15.3 8.4 53 5.0 NE 13 28 7 15 1019.8 1019.5 0.0
01/09:00am 17.2 14.7 8.1 55 4.7 NE 11 22 6 12 1019.8 1019.5 0.0
01/08:30am 15.6 12.8 8.6 63 3.6 ENE 13 20 7 11 1020.1 1019.8 0.0
01/08:00am 14.0 11.1 8.0 67 3.0 ENE 13 22 7 12 1020.4 1020.1 0.0
01/07:30am 13.0 10.5 8.1 72 2.4 ENE 11 20 6 11 1020.4 1020.4 0.0
01/07:00am 11.7 9.6 8.4 80 1.6 NE 9 17 5 9 1020.4 1020.4 0.0
01/06:30am 11.2 10.4 8.2 82 1.5 ENE 2 9 1 5 1020.4 1020.4 0.0
01/06:00am 9.8 9.1 8.6 92 0.6 E 2 7 1 4 1020.0 1020.0 0.0
01/05:30am 8.5 7.7 8.2 98 0.1 ENE 2 6 1 3 1019.8 1019.8 0.0
01/05:00am 8.0 7.1 7.7 98 0.1 ENE 2 4 1 2 1019.6 1019.6 0.0
01/04:30am 7.1 6.4 6.8 98 0.1 CALM 0 6 0 3 1019.7 1019.7 0.0
01/04:00am 7.7 7.1 7.6 99 0.0 CALM 0 0 0 0 1019.6 1019.6 0.0
01/03:30am 7.7 6.7 7.4 98 0.1 ESE 2 4 1 2 1019.6 1019.6 0.0
01/03:00am 8.3 7.8 8.0 98 0.1 CALM 0 4 0 2 1019.5 1019.5 0.0
01/02:30am 9.4 8.2 8.0 91 0.7 SE 4 7 2 4 1019.6 1019.6 0.0
01/02:00am 9.0 7.9 7.1 88 0.9 ESE 2 4 1 2 1019.6 1019.6 0.0
01/01:30am 10.0 8.7 7.8 86 1.1 E 4 9 2 5 1019.8 1019.8 0.0
01/01:00am 8.9 8.0 7.7 92 0.6 ESE 2 6 1 3 1019.7 1019.7 0.0
01/12:30am 10.1 9.1 7.2 82 1.4 SSE 2 6 1 3 1020.0 1020.0 0.0
01/12:00am 10.5 9.5 7.4 81 1.5 ESE 2 4 1 2 1020.3 1020.3 0.0
 
Date/Time
WST
Temp
°C
App
Temp
°C
Dew
Point
Rel
Hum
%
Delta-T
°C
Wind Press
QNH
hPa
Press
MSL
hPa
Rain
since 9 am
mm
Dir
 
Spd
km/h
Gust
km/h
Spd
kts
Gust
kts
31/11:30pm 10.9 9.9 7.2 78 1.8 SE 2 7 1 4 1020.4 1020.4 0.0
31/11:00pm 11.3 9.5 7.2 76 2.0 SE 6 11 3 6 1020.3 1020.3 0.0
31/10:30pm 11.7 10.0 7.4 75 2.1 SE 6 11 3 6 1020.3 1020.3 0.0
31/10:00pm 12.5 10.2 7.6 72 2.4 SE 9 19 5 10 1020.1 1020.1 0.0
31/09:30pm 13.2 10.6 7.6 69 2.8 SE 11 19 6 10 1020.1 1020.1 0.0
31/09:00pm 13.8 10.4 7.8 67 3.0 SE 15 24 8 13 1019.9 1019.9 0.0
31/08:30pm 13.9 12.2 9.7 76 2.2 S 9 15 5 8 1019.8 1019.8 0.0
31/08:00pm 14.5 12.8 9.9 74 2.4 S 9 15 5 8 1019.3 1019.2 0.0
31/07:30pm 15.3 14.1 10.3 72 2.6 S 7 13 4 7 1019.1 1019.0 0.0
31/07:00pm 16.3 14.5 9.5 64 3.6 SSE 9 17 5 9 1018.7 1018.6 0.0
31/06:30pm 17.1 15.6 8.3 56 4.5 S 6 7 3 4 1018.5 1018.4 0.0
31/06:00pm 18.4 16.2 7.8 50 5.4 SSE 9 15 5 8 1018.2 1018.1 0.0
31/05:30pm 19.8 17.2 7.9 46 6.2 SSE 11 17 6 9 1018.2 1018.1 0.0
31/05:00pm 20.1 18.5 7.8 45 6.4 S 6 7 3 4 1017.7 1017.6 0.0
31/04:30pm 20.5 18.1 7.2 42 6.8 S 9 17 5 9 1017.5 1017.4 0.0
31/04:00pm 20.1 17.7 7.1 43 6.7 SSE 9 15 5 8 1017.5 1017.4 0.0
31/03:30pm 20.8 18.3 6.4 39 7.3 SE 9 19 5 10 1017.3 1017.2 0.0
31/03:00pm 21.2 19.4 7.8 42 7.0 SE 7 20 4 11 1017.2 1017.1 0.0
31/02:30pm 20.8 18.9 7.4 42 6.9 S 7 17 4 9 1017.2 1017.1 0.0
31/02:00pm 20.0 17.8 7.7 45 6.4 SE 9 19 5 10 1017.2 1017.1 0.0
31/01:30pm 20.2 18.4 7.9 45 6.4 ESE 7 19 4 10 1017.5 1017.4 0.0
31/01:00pm 19.9 18.3 7.9 46 6.2 SE 6 15 3 8 1017.6 1017.5 0.0
31/12:30pm 19.1 17.2 7.5 47 6.0 SSE 7 15 4 8 1018.0 1017.9 0.0
31/12:00pm 17.8 16.0 7.8 52 5.1 SE 7 15 4 8 1018.4 1018.3 0.0
31/11:30am 17.9 15.9 8.5 54 4.9 SSE 9 15 5 8 1018.5 1018.4 0.0
31/11:00am 17.3 15.4 9.2 59 4.2 S 9 15 5 8 1018.4 1018.3 0.0
31/10:30am 16.6 14.6 8.6 59 4.1 SSE 9 19 5 10 1018.2 1018.1 0.0
31/10:00am 15.6 12.3 8.1 61 3.8 S 15 22 8 12 1018.1 1018.0 0.0
31/09:30am 15.1 12.4 9.0 67 3.1 SE 13 24 7 13 1018.1 1018.0 0.0
31/09:00am 14.7 11.3 7.5 62 3.6 SSE 15 24 8 13 1017.9 1017.8 1.4
31/08:30am 14.8 12.4 8.5 66 3.2 S 11 17 6 9 1017.9 1017.8 1.4
31/08:00am 14.7 12.6 9.9 73 2.5 SSE 11 20 6 11 1017.6 1017.5 1.4
31/07:30am 13.5 12.1 10.9 84 1.4 SSE 9 15 5 8 1017.3 1017.2 1.4
31/07:00am 12.7 12.2 10.9 89 0.9 SSE 4 9 2 5 1017.0 1016.9 1.4
31/06:30am 10.5 10.6 10.3 99 0.1 CALM 0 0 0 0 1016.8 1016.7 1.4
31/06:00am 8.8 8.5 8.8 100 0.0 CALM 0 0 0 0 1016.4 1016.3 1.4
31/05:30am 7.6 7.0 7.6 100 0.0 CALM 0 0 0 0 1016.0 1015.9 1.4
31/05:00am 8.3 7.9 8.2 99 0.0 CALM 0 0 0 0 1015.6 1015.5 1.4
31/04:30am 9.1 8.9 9.0 99 0.0 CALM 0 0 0 0 1015.1 1015.0 1.4
31/04:00am 9.7 9.6 9.6 99 0.1 CALM 0 2 0 1 1014.8 1014.7 1.4
31/03:30am 10.6 10.0 10.3 98 0.2 S 4 9 2 5 1014.5 1014.4 1.4
31/03:00am 11.5 10.6 11.2 98 0.2 S 7 13 4 7 1014.2 1014.1 1.4
31/02:30am 11.9 11.3 11.6 98 0.2 S 6 15 3 8 1013.9 1013.8 1.4
31/02:00am 12.6 11.6 12.4 99 0.1 SSW 9 17 5 9 1013.5 1013.4 1.4
31/01:30am 13.0 12.7 12.8 99 0.1 SSW 6 15 3 8 1013.3 1013.2 1.4
31/01:00am 13.1 12.3 12.9 99 0.1 SSW 9 20 5 11 1013.3 1013.2 1.4
31/12:30am 13.5 13.3 13.5 100 0.0 SSW 7 17 4 9 1013.3 1013.2 1.2
31/12:00am 13.7 13.7 13.7 100 0.0 NW 6 11 3 6 1013.0 1012.9 0.6
 
Date/Time
WST
Temp
°C
App
Temp
°C
Dew
Point
Rel
Hum
%
Delta-T
°C
Wind Press
QNH
hPa
Press
MSL
hPa
Rain
since 9 am
mm
Dir
 
Spd
km/h
Gust
km/h
Spd
kts
Gust
kts
30/11:30pm 13.7 13.7 13.7 100 0.0 NW 6 13 3 7 1012.9 1012.8 0.2
30/11:00pm 14.4 14.0 14.1 98 0.2 NW 9 17 5 9 1012.9 1012.8 0.0
30/10:30pm 14.3 14.2 14.0 98 0.2 NNW 7 13 4 7 1013.0 1012.9 0.0
30/10:00pm 13.8 13.8 13.5 98 0.2 NNW 6 9 3 5 1013.2 1013.1 0.0
30/09:30pm 13.4 13.6 12.9 97 0.3 NW 4 6 2 3 1013.4 1013.3 0.0
30/09:00pm 13.6 13.9 13.3 98 0.2 NW 4 7 2 4 1013.5 1013.4 0.0
30/08:30pm 14.1 14.5 13.8 98 0.2 WSW 4 9 2 5 1013.7 1013.6 0.0
30/08:00pm 14.7 14.6 13.2 91 0.8 W 6 11 3 6 1013.6 1013.5 0.0
30/07:30pm 14.5 14.2 13.2 92 0.7 NW 7 15 4 8 1013.3 1013.2 0.0
30/07:00pm 14.4 14.3 13.9 97 0.3 WNW 7 17 4 9 1013.2 1013.1 0.0
30/06:30pm 16.1 14.6 10.4 69 3.0 WNW 9 24 5 13 1012.7 1012.6 0.0
30/06:00pm 16.5 15.2 9.9 65 3.5 WNW 7 19 4 10 1012.5 1012.4 0.0
30/05:30pm 16.9 15.1 9.3 61 4.0 NW 9 17 5 9 1012.4 1012.3 0.0
30/05:00pm 17.4 15.3 9.8 61 4.0 W 11 20 6 11 1012.3 1012.2 0.0
30/04:30pm 18.0 16.4 10.1 60 4.2 W 9 17 5 9 1012.0 1011.9 0.0
30/04:00pm 19.7 17.7 10.1 54 5.2 W 11 26 6 14 1011.7 1011.6 0.0
30/03:30pm 19.2 16.9 10.5 57 4.7 W 13 26 7 14 1011.6 1011.5 0.0
30/03:00pm 20.1 17.8 10.5 54 5.3 W 13 26 7 14 1011.3 1011.2 0.0
30/02:30pm 21.7 19.2 9.6 46 6.6 W 13 26 7 14 1011.3 1011.2 0.0
30/02:00pm 21.9 19.4 9.8 46 6.6 WNW 13 24 7 13 1011.2 1011.1 0.0
30/01:30pm 20.9 18.7 10.7 52 5.6 NNW 13 28 7 15 1011.7 1011.6 0.0
30/01:00pm 20.4 19.1 11.1 55 5.2 WNW 9 19 5 10 1011.8 1011.7 0.0
30/12:30pm 20.5 19.4 12.0 58 4.8 WNW 9 15 5 8 1012.1 1012.0 0.0
30/12:00pm 19.7 18.1 11.7 60 4.5 NW 11 22 6 12 1012.4 1012.3 0.0
30/11:30am 18.3 17.5 11.1 63 3.9 WNW 6 13 3 7 1012.8 1012.7 0.0
30/11:00am 17.9 16.7 11.7 67 3.4 W 9 17 5 9 1013.1 1013.0 0.0
30/10:30am 17.5 16.5 12.4 72 2.8 NW 9 15 5 8 1013.5 1013.4 0.0
30/10:00am 16.9 17.8 13.0 78 2.2 CALM 0 4 0 2 1013.8 1013.7 0.0
30/09:30am 15.9 16.1 13.0 83 1.6 S 4 6 2 3 1014.0 1013.9 0.0
30/09:00am 15.4 16.4 14.3 93 0.6 SW 2 6 1 3 1014.1 1014.0 0.0
30/08:30am 14.5 15.1 14.2 98 0.2 SW 4 7 2 4 1014.2 1014.1 0.0
30/08:00am 13.4 14.0 13.2 99 0.1 SSW 2 9 1 5 1014.3 1014.2 0.0
30/07:30am 13.8 13.8 13.6 99 0.1 SW 6 9 3 5 1014.5 1014.4 0.0
30/07:00am 13.6 14.7 13.4 99 0.1 CALM 0 4 0 2 1014.4 1014.3 0.0
30/06:30am 13.3 13.9 13.1 99 0.1 S 2 4 1 2 1014.4 1014.3 0.0
30/06:00am 13.2 14.1 13.0 99 0.1 CALM 0 0 0 0 1014.3 1014.2 0.0
30/05:30am 13.2 13.8 13.0 99 0.1 S 2 6 1 3 1014.4 1014.3 0.0
30/05:00am 13.2 13.4 13.0 99 0.1 S 4 6 2 3 1014.4 1014.3 0.0
30/04:30am 13.3 13.1 13.0 98 0.2 S 6 7 3 4 1014.4 1014.3 0.0
30/04:00am 13.3 13.9 13.0 98 0.2 S 2 6 1 3 1014.2 1014.1 0.0
30/03:30am 13.5 14.1 13.2 98 0.2 SSW 2 6 1 3 1014.3 1014.2 0.0
30/03:00am 13.6 13.5 13.3 98 0.2 S 6 7 3 4 1014.2 1014.1 0.0
30/02:30am 13.7 14.8 13.4 98 0.2 CALM 0 0 0 0 1014.0 1013.9 0.0
30/02:00am 13.7 14.0 13.4 98 0.2 SSE 4 6 2 3 1014.2 1014.1 0.0
30/01:30am 13.6 13.4 13.1 97 0.3 S 6 9 3 5 1014.3 1014.2 0.0
30/01:00am 13.4 13.0 13.1 98 0.2 S 7 11 4 6 1014.3 1014.2 0.0
30/12:30am 13.1 12.8 12.8 98 0.2 SSE 6 9 3 5 1014.6 1014.6 0.0
30/12:00am 12.8 12.4 12.5 98 0.2 S 6 9 3 5 1015.2 1015.1 0.0
 
Date/Time
WST
Temp
°C
App
Temp
°C
Dew
Point
Rel
Hum
%
Delta-T
°C
Wind Press
QNH
hPa
Press
MSL
hPa
Rain
since 9 am
mm
Dir
 
Spd
km/h
Gust
km/h
Spd
kts
Gust
kts
29/11:30pm 12.1 11.5 11.8 98 0.2 S 6 9 3 5 1015.1 1015.0 0.0
29/11:00pm 12.5 11.5 12.2 98 0.2 SSE 9 15 5 8 1015.5 1015.4 0.0
29/10:30pm 12.8 12.2 12.3 97 0.3 SSE 7 13 4 7 1015.5 1015.4 0.0
29/10:00pm 13.3 11.8 12.0 92 0.7 S 11 17 6 9 1015.7 1015.6 0.0
29/09:30pm 13.9 12.9 12.3 90 0.9 S 9 19 5 10 1015.6 1015.5 0.0
29/09:00pm 14.7 14.3 12.9 89 1.0 S 7 15 4 8 1015.3 1015.2 0.0
29/08:30pm 15.6 15.2 13.1 85 1.4 S 7 13 4 7 1014.9 1014.8 0.0
29/08:00pm 16.6 16.4 13.1 80 2.0 S 6 9 3 5 1014.9 1014.8 0.0
29/07:30pm 17.4 17.3 13.3 77 2.3 S 6 11 3 6 1014.4 1014.3 0.0
29/07:00pm 18.2 17.8 13.1 72 2.9 SSE 7 13 4 7 1014.1 1014.0 0.0
29/06:30pm 19.7 18.3 13.4 67 3.6 SSE 13 19 7 10 1013.7 1013.6 0.0
29/06:00pm 22.1 22.0 13.2 57 5.2 SSW 6 9 3 5 1013.3 1013.2 0.0
29/05:30pm 22.6 22.8 13.1 55 5.5 S 4 4 2 2 1013.2 1013.1 0.0
29/05:00pm 22.9 22.6 11.6 49 6.4 S 4 7 2 4 1013.2 1013.1 0.0
29/04:30pm 23.7 23.5 11.7 47 6.8 SW 4 11 2 6 1013.2 1013.1 0.0
29/04:00pm 22.9 21.6 11.3 48 6.5 S 9 13 5 7 1013.3 1013.2 0.0
29/03:30pm 23.7 23.3 12.4 49 6.5 ENE 6 11 3 6 1013.4 1013.3 0.0
29/03:00pm 23.5 23.0 12.8 51 6.2 S 7 11 4 6 1013.7 1013.6 0.0
29/02:30pm 22.5 21.5 12.4 52 5.8 SSE 9 17 5 9 1013.8 1013.7 0.0
29/02:00pm 23.6 23.8 14.3 56 5.5 SSE 6 13 3 7 1014.1 1014.0 0.0
29/01:30pm 22.4 22.4 13.5 57 5.2 ESE 6 13 3 7 1014.3 1014.2 0.0
29/01:00pm 21.7 21.1 13.6 60 4.7 E 9 13 5 7 1014.9 1014.8 0.0
29/12:30pm 20.8 20.7 14.0 65 4.0 SE 7 15 4 8 1015.2 1015.1 0.0
29/12:00pm 19.6 18.8 14.0 70 3.2 S 11 20 6 11 1015.6 1015.5 0.0
29/11:30am 18.5 17.3 14.0 75 2.6 SSE 13 19 7 10 1016.1 1016.0 0.0

Other Formats:

Comma delimited format used in spreadsheet applications
http://www.bom.gov.au/fwo/IDW60801/IDW60801.95632.axf

JavaScript Object Notation format (JSON) in row-major order
http://www.bom.gov.au/fwo/IDW60801/IDW60801.95632.json